Data for 11/24/2010

Time Sea-Level Adjusted Pressure Absolute Pressure Temperature Relative Humidity Dew Point   
(mb) (inHg) (mb) (inHg) (C) (F) (%) (C) (F)
00:05 1009 29.8 838 24.75 -22 -7.5 80 -24.6 -12.2
00:10 1009 29.8 838 24.75 -22 -7.5 80 -24.6 -12.2
00:15 1009 29.8 838 24.75 -22 -7.7 80 -24.7 -12.4
00:20 1009 29.8 838 24.75 -22.1 -7.8 78 -25 -12.9
00:25 1009 29.8 838 24.75 -22.2 -8 81 -24.6 -12.3
00:30 1009 29.8 838 24.75 -22 -7.5 80 -24.5 -12.1
00:35 1009 29.8 838 24.75 -21.9 -7.4 80 -24.5 -12.1
00:40 1009 29.8 838 24.75 -21.9 -7.4 80 -24.4 -12
00:45 1009 29.8 838 24.75 -21.9 -7.4 80 -24.4 -12
00:50 1009 29.8 838 24.75 -21.9 -7.4 80 -24.4 -12
00:55 1009 29.8 838 24.75 -21.9 -7.5 80 -24.5 -12.1
01:00 1009 29.8 838 24.75 -21.9 -7.4 81 -24.4 -11.9
01:05 1009 29.8 838 24.75 -21.9 -7.4 81 -24.4 -11.9
01:10 1009 29.8 838 24.75 -22 -7.7 80 -24.6 -12.3
01:15 1009 29.8 838 24.75 -22.1 -7.8 80 -24.8 -12.6
01:20 1009 29.8 838 24.75 -22.2 -8 80 -24.8 -12.7
01:25 1009 29.8 838 24.75 -22.3 -8.1 79 -25 -12.9
01:30 1009 29.8 838 24.75 -22.5 -8.5 80 -25.1 -13.1
01:35 1009 29.8 838 24.75 -22.5 -8.4 80 -25 -13.1
01:40 1009 29.8 838 24.75 -22.5 -8.5 81 -25 -12.9
01:45 1009 29.8 838 24.75 -22.4 -8.2 80 -24.9 -12.9
01:50 1009 29.8 838 24.75 -22.4 -8.3 81 -24.8 -12.7
01:55 1009 29.8 838 24.75 -22.3 -8.1 81 -24.7 -12.5
02:00 1009 29.8 838 24.75 -22.3 -8.1 79 -24.9 -12.9
02:05 1009 29.8 838 24.75 -22.4 -8.4 80 -25 -12.9
02:10 1009 29.8 838 24.75 -22.6 -8.6 80 -25.1 -13.2
02:15 1009 29.8 838 24.75 -22.7 -8.9 81 -25.2 -13.3
02:20 1009 29.8 838 24.75 -22.8 -9 80 -25.3 -13.5
02:25 1009 29.8 838 24.75 -22.8 -9.1 81 -25.3 -13.6
02:30 1009 29.8 838 24.75 -22.9 -9.1 80 -25.3 -13.6
02:35 1009 29.8 838 24.75 -22.8 -9 81 -25.2 -13.4
02:40 1009 29.8 838 24.75 -22.8 -9 81 -25.2 -13.4
02:45 1009 29.8 838 24.75 -22.7 -8.9 81 -25.1 -13.3
02:50 1009 29.8 838 24.75 -22.6 -8.7 80 -25.1 -13.2
02:55 1009 29.8 838 24.75 -22.7 -8.8 80 -25.2 -13.4
03:00 1009 29.8 838 24.75 -22.8 -9 81 -25.2 -13.4
03:05 1009 29.8 838 24.75 -22.9 -9.2 80 -25.4 -13.8
03:10 1009 29.8 838 24.75 -23.1 -9.6 80 -25.6 -14.1
03:15 1009 29.8 838 24.75 -23.2 -9.7 81 -25.6 -14.1
03:20 1009 29.8 838 24.75 -23.3 -9.9 80 -25.8 -14.4
03:25 1009 29.8 838 24.75 -23.4 -10.1 80 -25.9 -14.6
03:30 1009 29.8 838 24.75 -23.6 -10.4 81 -25.9 -14.7
03:35 1009 29.8 838 24.75 -23.5 -10.3 81 -25.9 -14.5
03:40 1009 29.8 838 24.75 -23.4 -10.1 81 -25.8 -14.5
03:45 1009 29.8 838 24.75 -23.6 -10.4 80 -26.1 -15
03:50 1009 29.8 838 24.75 -23.7 -10.6 81 -26.1 -15
03:55 1009 29.8 838 24.75 -23.8 -10.8 80 -26.3 -15.4
04:00 1009 29.8 838 24.75 -23.9 -10.9 81 -26.3 -15.3
04:05 1009 29.8 838 24.75 -23.7 -10.7 82 -26.1 -14.9
04:10 1009 29.8 838 24.75 -23.7 -10.7 81 -26.1 -15
04:15 1009 29.8 838 24.75 -23.7 -10.7 82 -26 -14.9
04:20 1009 29.8 838 24.75 -23.6 -10.4 82 -25.9 -14.6
04:25 1009 29.8 838 24.75 -23.7 -10.7 77 -26.7 -16
04:30 1009 29.8 838 24.75 -24.4 -12 79 -27.1 -16.8
04:35 1009 29.8 838 24.75 -24.6 -12.3 80 -27.1 -16.8
04:40 1009 29.8 838 24.75 -24.7 -12.4 81 -27.1 -16.7
04:45 1009 29.8 838 24.75 -24.7 -12.5 80 -27.3 -17.1
04:50 1009 29.8 838 24.75 -24.8 -12.7 79 -27.4 -17.4
04:55 1009 29.8 838 24.75 -24.9 -12.8 81 -27.3 -17.1
05:00 1009 29.8 838 24.75 -24.9 -12.8 80 -27.4 -17.4
05:05 1009 29.8 838 24.75 -25.1 -13.2 80 -27.6 -17.7
05:10 1009 29.8 838 24.75 -25.2 -13.4 80 -27.8 -18
05:15 1009 29.8 839 24.78 -25.1 -13.2 81 -27.6 -17.6
05:20 1009 29.8 839 24.78 -25.1 -13.1 83 -27.2 -17
05:25 1009 29.8 839 24.78 -24.7 -12.4 81 -27 -16.6
05:30 1009 29.8 839 24.78 -24.6 -12.3 81 -27 -16.7
05:35 1009 29.8 839 24.78 -24.6 -12.3 82 -26.9 -16.5
05:40 1009 29.8 839 24.78 -24.6 -12.2 81 -27 -16.6
05:45 1009 29.8 839 24.78 -24.4 -12 81 -26.8 -16.3
05:50 1009 29.8 839 24.78 -24.4 -11.9 78 -27.3 -17.1
05:55 1009 29.8 839 24.78 -24.9 -12.7 81 -27.2 -17
06:00 1009 29.8 839 24.78 -24.7 -12.5 80 -27.2 -16.9
06:05 1009 29.8 839 24.78 -24.8 -12.6 80 -27.3 -17.2
06:10 1009 29.8 839 24.78 -25.1 -13.3 80 -27.6 -17.7
06:15 1009 29.8 839 24.78 -24.9 -12.7 81 -27.2 -17
06:20 1009 29.8 839 24.78 -24.5 -12.1 78 -27.3 -17.1
06:25 1009 29.8 839 24.78 -25.1 -13.2 80 -27.6 -17.7
06:30 1009 29.8 838 24.75 -25 -13 80 -27.5 -17.5
06:35 1009 29.8 838 24.75 -24.8 -12.7 80 -27.4 -17.3
06:40 1009 29.8 838 24.75 -24.6 -12.3 79 -27.3 -17.1
06:45 1009 29.8 838 24.75 -25.1 -13.1 79 -27.8 -18
06:50 1009 29.8 839 24.78 -25.2 -13.3 79 -27.9 -18.1
06:55 1009 29.8 839 24.78 -25 -13.1 79 -27.7 -17.9
07:00 1009 29.8 839 24.78 -24.8 -12.6 80 -27.3 -17.1
07:05 1009 29.8 839 24.78 -24.2 -11.6 80 -26.8 -16.2
07:10 1009 29.8 839 24.78 -23.8 -10.9 78 -26.6 -15.9
07:15 1009 29.8 838 24.75 -24.1 -11.3 78 -26.9 -16.4
07:20 1009 29.8 839 24.78 -24.2 -11.5 79 -26.8 -16.3
07:25 1009 29.8 839 24.78 -24.1 -11.3 79 -26.7 -16
07:30 1009 29.8 839 24.78 -24 -11.3 80 -26.6 -15.9
07:35 1009 29.8 839 24.78 -24 -11.2 80 -26.6 -15.8
07:40 1009 29.8 839 24.78 -23.9 -11.1 79 -26.6 -15.9
07:45 1009 29.8 839 24.78 -24.1 -11.3 79 -26.8 -16.2
07:50 1009 29.8 839 24.78 -24.1 -11.3 78 -26.9 -16.4
07:55 1009 29.8 839 24.78 -24.2 -11.5 80 -26.7 -16
08:00 1009 29.8 839 24.78 -23.7 -10.6 81 -26.1 -15
08:05 1009 29.8 839 24.78 -23.4 -10.1 80 -25.9 -14.7
08:10 1010 29.83 839 24.78 -23.3 -10 79 -26 -14.8
08:15 1010 29.83 839 24.78 -23.3 -10 80 -25.9 -14.5
08:20 1010 29.83 839 24.78 -23.1 -9.5 81 -25.5 -14
08:25 1010 29.83 839 24.78 -22.7 -8.9 80 -25.3 -13.5
08:30 1010 29.83 839 24.78 -22.4 -8.3 79 -25.1 -13.1
08:35 1010 29.83 839 24.78 -22.2 -8 78 -25.1 -13.2
08:40 1009 29.8 839 24.78 -22.1 -7.8 77 -25.1 -13.1
08:45 1009 29.8 839 24.78 -22 -7.6 78 -24.9 -12.8
08:50 1009 29.8 839 24.78 -21.6 -6.9 78 -24.4 -12
08:55 1009 29.8 839 24.78 -21.1 -6 79 -23.9 -11
09:00 1010 29.83 839 24.78 -20.7 -5.3 80 -23.3 -10
09:05 1010 29.83 839 24.78 -20.3 -4.5 79 -23 -9.4
09:10 1009 29.8 839 24.78 -20 -3.9 79 -22.8 -9
09:15 1009 29.8 839 24.78 -19.8 -3.6 78 -22.8 -9
09:20 1009 29.8 839 24.78 -19.8 -3.7 77 -22.9 -9.2
09:25 1010 29.83 839 24.78 -20.3 -4.6 76 -23.6 -10.4
09:30 1010 29.83 839 24.78 -20.4 -4.7 79 -23.2 -9.7
09:35 1010 29.83 839 24.78 -19.8 -3.6 78 -22.6 -8.7
09:40 1010 29.83 839 24.78 -19.3 -2.7 78 -22.2 -8
09:45 1010 29.83 839 24.78 -19 -2.2 77 -22.1 -7.9
09:50 1010 29.83 839 24.78 -18.9 -2 76 -22.1 -7.7
09:55 1010 29.83 839 24.78 -18.9 -1.9 75 -22.2 -7.9
10:00 1010 29.83 839 24.78 -19.1 -2.4 75 -22.5 -8.6
10:05 1010 29.83 839 24.78 -18.9 -1.9 77 -22 -7.6
10:10 1010 29.83 839 24.78 -18.5 -1.3 77 -21.7 -7
10:15 1010 29.83 839 24.78 -18.3 -0.9 75 -21.7 -7
10:20 1010 29.83 839 24.78 -18.8 -1.8 75 -22.2 -7.9
10:25 1010 29.83 839 24.78 -19.3 -2.7 73 -22.9 -9.3
10:30 1010 29.83 839 24.78 -19.7 -3.4 74 -23.2 -9.8
10:35 1010 29.83 839 24.78 -19.6 -3.3 76 -22.8 -9
10:40 1010 29.83 839 24.78 -19.2 -2.5 73 -22.9 -9.2
10:45 1010 29.83 840 24.81 -19.3 -2.8 75 -22.7 -8.9
10:50 1010 29.83 840 24.81 -19.2 -2.6 76 -22.4 -8.3
10:55 1010 29.83 840 24.81 -18.8 -1.9 72 -22.7 -8.8
11:00 1010 29.83 840 24.81 -18.8 -1.9 75 -22.2 -7.9
11:05 1010 29.83 840 24.81 -18.6 -1.5 75 -22.1 -7.7
11:10 1010 29.83 840 24.81 -18.3 -0.9 75 -21.7 -7.1
11:15 1010 29.83 840 24.81 -17.8 -0.1 74 -21.4 -6.6
11:20 1010 29.83 840 24.81 -17.6 0.4 73 -21.3 -6.4
11:25 1010 29.83 840 24.81 -17.6 0.4 75 -21.1 -5.9
11:30 1010 29.83 840 24.81 -17.7 0.1 69 -22 -7.7
11:35 1010 29.83 840 24.81 -18.3 -0.9 73 -22.1 -7.7
11:40 1010 29.83 839 24.78 -18.1 -0.6 72 -22 -7.6
11:45 1010 29.83 839 24.78 -17.5 0.5 72 -21.4 -6.4
11:50 1010 29.83 839 24.78 -17.2 1 70 -21.5 -6.6
11:55 1010 29.83 839 24.78 -17 1.4 71 -21.1 -5.9
12:00 1010 29.83 839 24.78 -16.8 1.7 67 -21.5 -6.7
12:05 1010 29.83 839 24.78 -16.9 1.6 68 -21.4 -6.6
12:10 1010 29.83 839 24.78 -16.6 2.1 68 -21.2 -6.1
12:15 1010 29.83 839 24.78 -16.4 2.4 70 -20.8 -5.4
12:20 1010 29.83 839 24.78 -16.2 2.9 66 -21.2 -6.2
12:25 1010 29.83 839 24.78 -16.4 2.4 66 -21.4 -6.6
12:30 1010 29.83 839 24.78 -16.6 2.2 65 -21.7 -7
12:35 1010 29.83 839 24.78 -16.5 2.3 66 -21.5 -6.7
12:40 1010 29.83 839 24.78 -16.2 2.9 63 -21.6 -6.9
12:45 1010 29.83 839 24.78 -15.8 3.5 63 -21.3 -6.4
12:50 1010 29.83 839 24.78 -15.6 3.9 61 -21.5 -6.6
12:55 1010 29.83 839 24.78 -15.3 4.5 61 -21.2 -6.2
13:00 1010 29.83 839 24.78 -15.1 4.8 61 -21 -5.7
13:05 1010 29.83 839 24.78 -14.9 5.1 58 -21.4 -6.6
13:10 1010 29.83 839 24.78 -15.1 4.7 60 -21.3 -6.4
13:15 1010 29.83 839 24.78 -15.1 4.9 63 -20.7 -5.2
13:20 1010 29.83 839 24.78 -15 4.9 60 -21.2 -6.2
13:25 1010 29.83 839 24.78 -15.4 4.4 60 -21.4 -6.5
13:30 1010 29.83 839 24.78 -15.7 3.7 59 -22 -7.6
13:35 1010 29.83 839 24.78 -16 3.3 59 -22.2 -7.9
13:40 1010 29.83 839 24.78 -16 3.3 59 -22.3 -8.1
13:45 1010 29.83 839 24.78 -16.1 3.1 61 -22 -7.6
13:50 1010 29.83 839 24.78 -16.1 3 61 -21.9 -7.4
13:55 1010 29.83 839 24.78 -16 3.2 61 -21.8 -7.3
14:00 1010 29.83 839 24.78 -15.8 3.6 62 -21.6 -6.8
14:05 1010 29.83 839 24.78 -15.7 3.7 62 -21.5 -6.6
14:10 1010 29.83 839 24.78 -15.6 3.9 62 -21.3 -6.3
14:15 1010 29.83 839 24.78 -15.8 3.5 61 -21.8 -7.2
14:20 1010 29.83 839 24.78 -16.2 2.9 63 -21.7 -7.1
14:25 1010 29.83 839 24.78 -16.2 2.8 61 -22 -7.7
14:30 1010 29.83 839 24.78 -16.2 2.8 63 -21.7 -7.1
14:35 1010 29.83 840 24.81 -16.4 2.4 60 -22.4 -8.3
14:40 1010 29.83 840 24.81 -16.9 1.6 64 -22.2 -7.9
14:45 1011 29.85 840 24.81 -16.8 1.9 65 -21.8 -7.2
14:50 1011 29.85 840 24.81 -16.9 1.7 68 -21.5 -6.6
14:55 1011 29.85 840 24.81 -16.9 1.5 71 -21 -5.8
15:00 1011 29.85 840 24.81 -16.8 1.8 73 -20.6 -5.1
15:05 1011 29.85 840 24.81 -16.7 1.9 74 -20.4 -4.6
15:10 1011 29.85 840 24.81 -16.7 2 75 -20.2 -4.4
15:15 1011 29.85 840 24.81 -16.8 1.8 76 -20.1 -4.2
15:20 1011 29.85 840 24.81 -17 1.4 77 -20.2 -4.4
15:25 1011 29.85 841 24.83 -17.3 0.8 78 -20.2 -4.4
15:30 1012 29.88 841 24.83 -17.4 0.7 80 -20.1 -4.2
15:35 1012 29.88 841 24.83 -17.2 1 79 -20.1 -4.2
15:40 1011 29.85 841 24.83 -17.5 0.6 81 -20 -4
15:45 1012 29.88 841 24.83 -17.4 0.6 81 -20 -4
15:50 1012 29.88 841 24.83 -17.3 0.9 81 -19.9 -3.8
15:55 1012 29.88 841 24.83 -17.2 1 81 -19.8 -3.6
16:00 1012 29.88 841 24.83 -17.1 1.1 80 -19.8 -3.6
16:05 1012 29.88 841 24.83 -17.1 1.3 81 -19.7 -3.4
16:10 1012 29.88 841 24.83 -17.1 1.2 80 -19.8 -3.6
16:15 1012 29.88 841 24.83 -17.1 1.3 80 -19.7 -3.4
16:20 1012 29.88 841 24.83 -17.2 1.1 81 -19.7 -3.4
16:25 1012 29.88 841 24.83 -17.2 1.1 81 -19.6 -3.4
16:30 1012 29.88 841 24.83 -17.1 1.3 81 -19.6 -3.2
16:35 1012 29.88 841 24.83 -17.1 1.3 82 -19.5 -3.1
16:40 1012 29.88 841 24.83 -17.1 1.3 81 -19.5 -3.2
16:45 1012 29.88 841 24.83 -17.1 1.3 81 -19.5 -3.1
16:50 1012 29.88 842 24.86 -17 1.5 81 -19.6 -3.2
16:55 1012 29.88 842 24.86 -17 1.3 82 -19.5 -3.1
17:00 1012 29.88 842 24.86 -17.1 1.2 82 -19.6 -3.2
17:05 1012 29.88 842 24.86 -17.1 1.1 82 -19.5 -3.1
17:10 1012 29.88 842 24.86 -17.2 1.1 83 -19.4 -2.9
17:15 1012 29.88 842 24.86 -17 1.3 82 -19.4 -2.8
17:20 1012 29.88 842 24.86 -17 1.5 82 -19.3 -2.7
17:25 1013 29.91 842 24.86 -17.1 1.3 82 -19.4 -3
17:30 1012 29.88 842 24.86 -17.1 1.2 82 -19.5 -3
17:35 1012 29.88 842 24.86 -17 1.3 82 -19.5 -3
17:40 1013 29.91 842 24.86 -17.1 1.3 82 -19.4 -3
17:45 1013 29.91 842 24.86 -17 1.3 82 -19.4 -2.9
17:50 1013 29.91 842 24.86 -17 1.4 82 -19.3 -2.8
17:55 1013 29.91 842 24.86 -17 1.4 82 -19.4 -2.9
18:00 1013 29.91 842 24.86 -17.1 1.3 83 -19.4 -2.9
18:05 1013 29.91 842 24.86 -17.1 1.2 82 -19.5 -3
18:10 1013 29.91 842 24.86 -17.1 1.2 83 -19.3 -2.8
18:15 1013 29.91 842 24.86 -17.2 1.1 83 -19.4 -3
18:20 1013 29.91 842 24.86 -17.2 1.1 83 -19.4 -3
18:25 1013 29.91 842 24.86 -17.1 1.2 83 -19.4 -3
18:30 1013 29.91 842 24.86 -17.1 1.3 83 -19.3 -2.8
18:35 1013 29.91 842 24.86 -17 1.3 83 -19.3 -2.8
18:40 1013 29.91 842 24.86 -17.1 1.3 82 -19.5 -3.1
18:45 1013 29.91 842 24.86 -17.1 1.2 83 -19.3 -2.8
18:50 1013 29.91 842 24.86 -17.1 1.3 83 -19.3 -2.8
18:55 1013 29.91 842 24.86 -16.9 1.5 82 -19.3 -2.8
19:00 1013 29.91 842 24.86 -17.1 1.3 83 -19.4 -2.8
19:05 1013 29.91 843 24.89 -16.9 1.5 83 -19.2 -2.6
19:10 1013 29.91 843 24.89 -16.9 1.7 83 -19.1 -2.3
19:15 1013 29.91 843 24.89 -16.6 2 83 -18.9 -2
19:20 1013 29.91 843 24.89 -16.6 2.2 82 -19 -2.2
19:25 1013 29.91 843 24.89 -16.6 2.2 83 -18.9 -2
19:30 1013 29.91 843 24.89 -16.5 2.3 83 -18.8 -1.8
19:35 1014 29.94 843 24.89 -16.4 2.4 82 -18.8 -1.8
19:40 1014 29.94 843 24.89 -16.4 2.4 83 -18.7 -1.7
19:45 1014 29.94 843 24.89 -16.3 2.7 82 -18.7 -1.6
19:50 1014 29.94 843 24.89 -16.3 2.7 82 -18.6 -1.6
19:55 1014 29.94 843 24.89 -16.3 2.7 83 -18.6 -1.5
20:00 1014 29.94 843 24.89 -16.3 2.7 83 -18.5 -1.4
20:05 1014 29.94 843 24.89 -16.2 2.8 83 -18.5 -1.3
20:10 1014 29.94 843 24.89 -16.2 2.9 83 -18.5 -1.2
20:15 1014 29.94 843 24.89 -16.1 3 83 -18.4 -1.2
20:20 1014 29.94 843 24.89 -16.1 3.1 82 -18.5 -1.3
20:25 1014 29.94 843 24.89 -16 3.2 81 -18.6 -1.4
20:30 1014 29.94 843 24.89 -16 3.1 81 -18.6 -1.5
20:35 1014 29.94 843 24.89 -16.2 2.9 82 -18.6 -1.5
20:40 1014 29.94 843 24.89 -16.2 2.9 81 -18.7 -1.7
20:45 1014 29.94 843 24.89 -16.2 2.9 80 -18.8 -1.9
20:50 1014 29.94 843 24.89 -16.1 3 79 -18.9 -2.1
20:55 1014 29.94 843 24.89 -16.1 3 77 -19.2 -2.5
21:00 1014 29.94 844 24.92 -16.1 3 77 -19.2 -2.6
21:05 1014 29.94 844 24.92 -16 3.1 77 -19.2 -2.5
21:10 1014 29.94 844 24.92 -16 3.2 77 -19.2 -2.6
21:15 1014 29.94 844 24.92 -15.9 3.5 77 -19 -2.1
21:20 1015 29.97 844 24.92 -15.8 3.5 76 -19.2 -2.6
21:25 1015 29.97 844 24.92 -15.7 3.8 74 -19.4 -2.9
21:30 1015 29.97 844 24.92 -15.5 4.1 73 -19.4 -2.8
21:35 1015 29.97 844 24.92 -15.5 4.2 73 -19.4 -2.8
21:40 1015 29.97 844 24.92 -15.4 4.2 72 -19.4 -3
21:45 1015 29.97 844 24.92 -15.4 4.2 72 -19.4 -2.9
21:50 1015 29.97 844 24.92 -15.4 4.3 70 -19.6 -3.3
21:55 1015 29.97 844 24.92 -15.4 4.3 69 -19.8 -3.7
22:00 1015 29.97 844 24.92 -15.5 4.2 68 -20.1 -4.1
22:05 1015 29.97 844 24.92 -15.5 4.1 67 -20.3 -4.5
22:10 1015 29.97 844 24.92 -15.5 4.2 67 -20.3 -4.6
22:15 1015 29.97 844 24.92 -15.5 4.2 66 -20.5 -4.8
22:20 1015 29.97 844 24.92 -15.5 4.2 67 -20.3 -4.6
22:25 1015 29.97 844 24.92 -15.5 4.2 67 -20.3 -4.5
22:30 1015 29.97 844 24.92 -15.5 4.2 68 -20.1 -4.2
22:35 1015 29.97 844 24.92 -15.5 4.1 68 -20.2 -4.3
22:40 1015 29.97 844 24.92 -15.5 4.1 69 -20 -4
22:45 1015 29.97 844 24.92 -15.5 4.1 68 -20.2 -4.3
22:50 1015 29.97 844 24.92 -15.6 3.9 67 -20.4 -4.7
22:55 1015 29.97 845 24.95 -15.6 4 68 -20.3 -4.5
23:00 1015 29.97 845 24.95 -15.5 4 67 -20.4 -4.7
23:05 1015 29.97 845 24.95 -15.5 4 68 -20.3 -4.5
23:10 1015 29.97 845 24.95 -15.5 4.1 65 -20.7 -5.3
23:15 1015 29.97 845 24.95 -15.6 4 66 -20.5 -4.9
23:20 1016 30 845 24.95 -15.5 4 65 -20.7 -5.2
23:25 1016 30 845 24.95 -15.7 3.7 66 -20.7 -5.3
23:30 1016 30 845 24.95 -15.9 3.4 67 -20.7 -5.3
23:35 1016 30 845 24.95 -15.9 3.4 67 -20.7 -5.2
23:40 1016 30 845 24.95 -15.9 3.4 66 -20.8 -5.5
23:45 1016 30 845 24.95 -16 3.2 67 -20.8 -5.5
23:50 1016 30 845 24.95 -16.1 3.1 66 -21 -5.8
23:55 1016 30 845 24.95 -16.5 2.3 66 -21.5 -6.7
24:00 1016 30 845 24.95 -17.2 1 67 -22 -7.7